Time;durP1;ratioP1;P1;durP2;ratioP2;P2;SDS_P1;SDS_P2;PMS_P1;PMS_P2;Temp;Humidity;BMP_temperature;BMP_pressure;BME280_temperature;BME280_humidity;BME280_pressure;Samples;Min_cycle;Max_cycle;Signal;HPM_P1;HPM_P2
2023/05/23 00:01:59;;;;;;;41.92;24.05;;;;;;;15.67;100.00;97097.13;4996060;28;20054;-60
2023/05/23 00:04:25;;;;;;;39.78;25.63;;;;;;;15.62;100.00;97100.72;5002752;28;20587;-59
2023/05/23 00:06:53;;;;;;;39.78;23.83;;;;;;;15.59;100.00;97093.94;5000959;28;20133;-58
2023/05/23 00:09:19;;;;;;;41.80;23.15;;;;;;;15.62;100.00;97103.47;4995077;28;20092;-57
2023/05/23 00:11:46;;;;;;;44.17;24.00;;;;;;;15.59;100.00;97091.22;4994904;28;20050;-59
2023/05/23 00:14:15;;;;;;;44.42;26.60;;;;;;;15.48;100.00;97101.44;4997589;28;20061;-59
2023/05/23 00:16:43;;;;;;;48.70;26.33;;;;;;;15.50;100.00;97098.44;5002208;28;20125;-59
2023/05/23 00:19:13;;;;;;;47.53;27.38;;;;;;;15.48;100.00;97103.34;4998530;28;20041;-60
2023/05/23 00:21:42;;;;;;;49.35;29.80;;;;;;;15.40;100.00;97104.81;5001325;28;20038;-59
2023/05/23 00:24:09;;;;;;;58.67;30.08;;;;;;;15.41;100.00;97106.44;4999172;28;20065;-60
2023/05/23 00:26:36;;;;;;;51.05;27.52;;;;;;;15.45;100.00;97096.56;4986976;28;20045;-59
2023/05/23 00:29:02;;;;;;;52.90;29.63;;;;;;;15.34;100.00;97112.22;4998238;28;20715;-59
2023/05/23 00:31:29;;;;;;;54.40;28.58;;;;;;;15.29;100.00;97111.50;5000104;28;20130;-57
2023/05/23 00:33:55;;;;;;;52.53;31.00;;;;;;;15.15;100.00;97103.97;4995707;28;20053;-59
2023/05/23 00:36:22;;;;;;;48.78;28.13;;;;;;;15.15;100.00;97117.63;5000448;28;20113;-59
2023/05/23 00:38:49;;;;;;;45.72;26.98;;;;;;;15.12;100.00;97120.13;5000227;28;20045;-60
2023/05/23 00:41:17;;;;;;;47.78;26.23;;;;;;;15.12;100.00;97118.22;4996375;28;20038;-60
2023/05/23 00:43:43;;;;;;;57.08;30.90;;;;;;;15.02;100.00;97121.03;5000966;28;20695;-57
2023/05/23 00:46:10;;;;;;;58.65;32.00;;;;;;;15.05;100.00;97123.19;4998880;28;20062;-58
2023/05/23 00:48:37;;;;;;;51.38;28.77;;;;;;;15.09;100.00;97126.97;4999858;28;20056;-60
2023/05/23 00:51:04;;;;;;;47.63;27.80;;;;;;;15.12;100.00;97131.84;5001134;28;20046;-60
2023/05/23 00:53:32;;;;;;;49.42;28.08;;;;;;;15.12;100.00;97137.28;4999779;28;20510;-60
2023/05/23 00:55:59;;;;;;;60.28;32.60;;;;;;;15.02;100.00;97131.94;4999369;28;20049;-60
2023/05/23 00:58:25;;;;;;;61.22;32.85;;;;;;;14.99;100.00;97135.22;4998490;28;20089;-57
2023/05/23 01:00:54;;;;;;;58.97;31.92;;;;;;;14.99;100.00;97133.31;4997875;28;20130;-59
2023/05/23 01:03:22;;;;;;;59.78;34.17;;;;;;;14.96;100.00;97128.44;4999898;28;20711;-59
2023/05/23 01:05:49;;;;;;;64.35;33.67;;;;;;;14.96;100.00;97136.59;4994774;28;20038;-60
2023/05/23 01:08:16;;;;;;;70.78;36.80;;;;;;;14.95;100.00;97137.72;5001262;28;20041;-60
2023/05/23 01:10:43;;;;;;;65.93;35.33;;;;;;;14.90;100.00;97137.75;4998756;28;20045;-59
2023/05/23 01:13:25;;;;;;;70.93;36.92;;;;;;;14.95;100.00;97143.16;5000653;28;20038;-60
2023/05/23 01:16:00;;;;;;;63.53;35.97;;;;;;;14.95;100.00;97141.25;4995081;28;20516;-58
2023/05/23 01:18:37;;;;;;;67.43;35.72;;;;;;;15.01;100.00;97138.47;4998993;28;20042;-60
2023/05/23 01:21:17;;;;;;;72.07;38.85;;;;;;;14.99;100.00;97130.59;4986408;28;20517;-60
2023/05/23 01:24:03;;;;;;;73.90;39.25;;;;;;;15.02;100.00;97138.19;4999671;28;20052;-58
2023/05/23 01:26:54;;;;;;;79.07;40.88;;;;;;;15.12;100.00;97140.03;4990588;28;20109;-59
2023/05/23 01:29:27;;;;;;;68.95;40.90;;;;;;;15.21;100.00;97137.47;5010557;28;20041;-59
2023/05/23 01:31:57;;;;;;;70.13;39.60;;;;;;;15.29;100.00;97136.03;4992142;28;20526;-60
2023/05/23 01:34:24;;;;;;;77.47;38.20;;;;;;;15.35;100.00;97137.59;5001843;28;20045;-59
2023/05/23 01:36:54;;;;;;;71.18;38.90;;;;;;;15.37;100.00;97137.31;4995602;28;20042;-58
2023/05/23 01:39:22;;;;;;;70.93;39.55;;;;;;;15.42;100.00;97129.06;5000602;28;20041;-59
2023/05/23 01:41:50;;;;;;;64.57;37.58;;;;;;;15.51;100.00;97138.25;4999621;28;20040;-59
2023/05/23 01:44:17;;;;;;;74.53;40.83;;;;;;;15.48;100.00;97134.19;5001106;28;20046;-58
2023/05/23 01:46:47;;;;;;;71.32;40.85;;;;;;;15.50;100.00;97136.63;4992272;28;20429;-60
2023/05/23 01:49:15;;;;;;;68.03;40.58;;;;;;;15.46;100.00;97136.41;5003155;28;20092;-60
2023/05/23 01:51:42;;;;;;;75.25;43.08;;;;;;;15.43;100.00;97138.88;4997010;28;20070;-59
2023/05/23 01:54:13;;;;;;;76.53;40.60;;;;;;;15.48;100.00;97138.81;4992088;28;20116;-60
2023/05/23 01:56:41;;;;;;;75.18;41.42;;;;;;;15.51;100.00;97138.25;5001681;28;20033;-58
2023/05/23 01:59:08;;;;;;;73.68;41.33;;;;;;;15.55;100.00;97139.28;4991415;28;20429;-59
2023/05/23 02:01:36;;;;;;;68.90;40.50;;;;;;;15.54;100.00;97137.66;4992064;28;20096;-58
2023/05/23 02:04:03;;;;;;;63.92;37.47;;;;;;;15.60;100.00;97136.50;4994239;28;20053;-59
2023/05/23 02:06:30;;;;;;;69.80;39.65;;;;;;;15.61;100.00;97134.59;4998654;28;20038;-59
2023/05/23 02:08:57;;;;;;;63.42;37.55;;;;;;;15.61;100.00;97134.59;4988577;28;20456;-59
2023/05/23 02:11:23;;;;;;;67.07;38.80;;;;;;;15.66;100.00;97128.28;4990299;28;20038;-60
2023/05/23 02:13:50;;;;;;;60.35;36.67;;;;;;;15.73;100.00;97135.00;4997747;28;20046;-60
2023/05/23 02:16:17;;;;;;;62.42;39.05;;;;;;;15.65;100.00;97126.63;4994170;28;20042;-59
2023/05/23 02:18:44;;;;;;;63.22;38.20;;;;;;;15.58;100.00;97122.34;4993791;28;20457;-60
2023/05/23 02:21:11;;;;;;;61.15;38.67;;;;;;;15.60;100.00;97122.06;4997132;28;20526;-60
2023/05/23 02:23:38;;;;;;;59.10;35.30;;;;;;;15.69;100.00;97130.41;5004533;28;20042;-60
2023/05/23 02:26:04;;;;;;;63.90;37.80;;;;;;;15.58;100.00;97136.00;5001191;28;20040;-60
2023/05/23 02:28:31;;;;;;;65.13;39.65;;;;;;;15.50;100.00;97133.06;4994900;28;20054;-59
2023/05/23 02:30:57;;;;;;;59.10;36.33;;;;;;;15.51;100.00;97137.44;4986703;28;20149;-59
2023/05/23 02:33:24;;;;;;;58.55;35.83;;;;;;;15.58;100.00;97140.63;4997294;28;20034;-60
2023/05/23 02:35:51;;;;;;;60.72;36.25;;;;;;;15.56;100.00;97140.13;4993276;28;20065;-59
2023/05/23 02:38:19;;;;;;;60.33;37.10;;;;;;;15.55;100.00;97139.28;4990481;28;20069;-59
2023/05/23 02:40:46;;;;;;;62.00;38.20;;;;;;;15.59;100.00;97139.53;4996089;28;20034;-56
2023/05/23 02:43:12;;;;;;;59.08;36.10;;;;;;;15.59;100.00;97145.00;4994136;28;20650;-59
2023/05/23 02:45:39;;;;;;;54.50;35.00;;;;;;;15.59;100.00;97145.78;4998451;28;20048;-58
2023/05/23 02:48:06;;;;;;;57.47;35.25;;;;;;;15.65;100.00;97143.00;4997102;28;20042;-60
2023/05/23 02:50:32;;;;;;;59.13;35.58;;;;;;;15.61;100.00;97145.50;5002388;28;20096;-60
2023/05/23 02:52:59;;;;;;;56.90;35.05;;;;;;;15.62;100.00;97149.84;4997821;28;20100;-60
2023/05/23 02:55:26;;;;;;;56.97;36.17;;;;;;;15.51;100.00;97154.63;5000900;28;20048;-59
2023/05/23 02:57:53;;;;;;;56.85;35.28;;;;;;;15.59;100.00;97150.47;4999874;28;20125;-59
2023/05/23 03:00:20;;;;;;;49.10;32.42;;;;;;;15.67;100.00;97157.19;5000334;28;20468;-59
2023/05/23 03:02:50;;;;;;;54.10;35.10;;;;;;;15.67;100.00;97151.72;4988841;28;20085;-60
2023/05/23 03:05:17;;;;;;;57.72;35.75;;;;;;;15.59;100.00;97164.09;4993999;28;20688;-59
2023/05/23 03:07:44;;;;;;;51.95;30.77;;;;;;;15.67;100.00;97162.63;4997853;28;20042;-59
2023/05/23 03:10:11;;;;;;;53.33;33.20;;;;;;;15.77;100.00;97158.97;4983190;28;20061;-60
2023/05/23 03:12:37;;;;;;;50.28;33.67;;;;;;;15.75;100.00;97164.72;4988194;28;20390;-60
2023/05/23 03:15:04;;;;;;;53.72;32.22;;;;;;;15.73;100.00;97161.47;4996939;28;20049;-60
2023/05/23 03:17:31;;;;;;;50.13;34.78;;;;;;;15.66;100.00;97158.28;4993678;28;20488;-59
2023/05/23 03:19:58;;;;;;;49.28;32.80;;;;;;;15.62;100.00;97159.97;4998684;28;20037;-59
2023/05/23 03:22:24;;;;;;;53.22;35.75;;;;;;;15.46;100.00;97166.41;4988491;28;20053;-58
2023/05/23 03:24:51;;;;;;;64.82;36.20;;;;;;;15.52;100.00;97164.41;4997712;28;20048;-59
2023/05/23 03:27:17;;;;;;;55.33;34.88;;;;;;;15.52;100.00;97169.09;4999775;28;20037;-60
2023/05/23 03:29:44;;;;;;;52.22;34.95;;;;;;;15.44;100.00;97173.25;5005291;28;20077;-57
2023/05/23 03:32:11;;;;;;;56.08;34.05;;;;;;;15.44;100.00;97174.06;4996507;28;20084;-60
2023/05/23 03:34:37;;;;;;;56.60;35.10;;;;;;;15.46;100.00;97174.59;4997352;28;20045;-60
2023/05/23 03:37:04;;;;;;;53.40;33.45;;;;;;;15.54;100.00;97183.22;5000368;28;20041;-59
2023/05/23 03:39:30;;;;;;;52.15;34.42;;;;;;;15.46;100.00;97182.78;5002210;28;20223;-59
2023/05/23 03:41:57;;;;;;;51.88;34.72;;;;;;;15.36;100.00;97174.69;4998652;28;20038;-58
2023/05/23 03:44:24;;;;;;;52.92;33.97;;;;;;;15.37;100.00;97172.78;4998548;28;20061;-59
2023/05/23 03:46:51;;;;;;;55.63;34.47;;;;;;;15.41;100.00;97174.63;5001130;28;20037;-59
2023/05/23 03:49:19;;;;;;;49.60;33.58;;;;;;;15.51;100.00;97181.91;5000131;28;20048;-58
2023/05/23 03:51:45;;;;;;;54.47;36.65;;;;;;;15.43;100.00;97182.53;4988941;28;20049;-59
2023/05/23 03:54:16;;;;;;;49.53;33.92;;;;;;;15.45;100.00;97183.88;4995944;28;20152;-58
2023/05/23 03:56:42;;;;;;;51.15;33.80;;;;;;;15.50;100.00;97183.00;4999139;28;20034;-59
2023/05/23 03:59:09;;;;;;;49.85;34.20;;;;;;;15.54;100.00;97186.78;4998684;28;20045;-59
2023/05/23 04:01:36;;;;;;;49.15;34.22;;;;;;;15.54;100.00;97188.69;5000559;28;20100;-59
2023/05/23 04:04:03;;;;;;;53.08;33.60;;;;;;;15.42;100.00;97187.19;4999833;28;20050;-60
2023/05/23 04:06:32;;;;;;;45.08;32.22;;;;;;;15.48;100.00;97187.94;4997813;28;20042;-60
2023/05/23 04:09:00;;;;;;;47.65;32.50;;;;;;;15.53;100.00;97179.72;4996983;28;20460;-60
2023/05/23 04:11:27;;;;;;;46.88;32.55;;;;;;;15.51;100.00;97186.56;4999691;28;20307;-60
2023/05/23 04:13:53;;;;;;;54.88;34.85;;;;;;;15.48;100.00;97182.47;5001760;28;20042;-60
2023/05/23 04:16:22;;;;;;;46.08;31.00;;;;;;;15.55;100.00;97182.16;4998895;28;20080;-60
2023/05/23 04:18:50;;;;;;;48.88;34.20;;;;;;;15.44;100.00;97184.19;4993721;28;20042;-60
2023/05/23 04:21:17;;;;;;;53.42;35.53;;;;;;;15.44;100.00;97184.97;4996521;28;20050;-60
2023/05/23 04:23:55;;;;;;;52.95;34.42;;;;;;;15.39;100.00;97190.50;4996565;28;20520;-60
2023/05/23 04:26:21;;;;;;;52.20;35.30;;;;;;;15.42;100.00;97191.81;4992185;28;20053;-59
2023/05/23 04:28:53;;;;;;;57.13;36.60;;;;;;;15.45;100.00;97191.25;4994229;28;20145;-59
2023/05/23 04:31:21;;;;;;;57.25;36.25;;;;;;;15.43;100.00;97194.25;4988695;28;20051;-59
2023/05/23 04:33:48;;;;;;;51.00;35.22;;;;;;;15.41;100.00;97195.66;4987876;28;20049;-60
2023/05/23 04:36:17;;;;;;;54.17;36.92;;;;;;;15.39;100.00;97197.84;4992632;28;20141;-59
2023/05/23 04:38:47;;;;;;;;;;;;;;;15.42;100.00;97195.38;4994757;28;20077;-59
2023/05/23 04:41:15;;;;;;;54.80;36.05;;;;;;;15.42;100.00;97195.38;4996086;28;19968;-59
2023/05/23 04:44:04;;;;;;;57.85;39.00;;;;;;;15.33;100.00;97203.34;4991041;28;20064;-59
2023/05/23 04:47:07;;;;;;;53.63;35.38;;;;;;;15.42;100.00;97206.28;4988421;28;20069;-59
2023/05/23 04:49:54;;;;;;;54.95;36.45;;;;;;;15.39;100.00;97215.03;4993669;28;20061;-59
2023/05/23 04:52:21;;;;;;;52.67;35.25;;;;;;;15.43;100.00;97218.81;4994085;28;20126;-60
2023/05/23 04:54:48;;;;;;;54.17;37.05;;;;;;;15.39;100.00;97215.03;4988591;28;20421;-58
2023/05/23 04:57:15;;;;;;;54.50;37.40;;;;;;;15.34;100.00;97220.53;4991771;28;20050;-59
2023/05/23 04:59:42;;;;;;;55.65;37.05;;;;;;;15.33;100.00;97222.44;4993661;28;20077;-60
2023/05/23 05:02:09;;;;;;;52.13;34.78;;;;;;;15.37;100.00;97224.63;4995152;28;20556;-59
2023/05/23 05:04:36;;;;;;;55.20;36.53;;;;;;;15.40;100.00;97224.84;4994212;28;20050;-60
2023/05/23 05:07:04;;;;;;;53.08;36.55;;;;;;;15.43;100.00;97224.28;4990030;28;20054;-60
2023/05/23 05:09:32;;;;;;;53.08;36.78;;;;;;;15.40;100.00;97224.03;4996254;28;20094;-60
2023/05/23 05:11:59;;;;;;;55.85;37.47;;;;;;;15.34;100.00;97224.06;4995728;28;20170;-59
2023/05/23 05:14:26;;;;;;;55.58;37.13;;;;;;;15.32;100.00;97222.72;4996963;28;20096;-59
2023/05/23 05:16:53;;;;;;;52.97;37.42;;;;;;;15.35;100.00;97224.91;4998467;28;20080;-60
2023/05/23 05:19:21;;;;;;;52.38;37.25;;;;;;;15.41;100.00;97231.91;4998900;28;20049;-59
2023/05/23 05:21:47;;;;;;;55.60;37.42;;;;;;;15.31;100.00;97237.47;4997098;28;20054;-59
2023/05/23 05:24:14;;;;;;;54.03;38.63;;;;;;;15.25;100.00;97235.91;5000493;28;20073;-60
2023/05/23 05:26:41;;;;;;;58.83;37.50;;;;;;;15.21;100.00;97233.75;4996966;28;20076;-60
2023/05/23 05:29:08;;;;;;;52.70;36.65;;;;;;;15.31;100.00;97238.31;4994242;28;20034;-60
2023/05/23 05:31:36;;;;;;;49.85;36.72;;;;;;;15.42;100.00;97232.75;4990749;28;20073;-60
2023/05/23 05:34:03;;;;;;;49.95;35.45;;;;;;;15.48;100.00;97229.69;5011410;28;20907;-59
2023/05/23 05:36:31;;;;;;;51.65;37.28;;;;;;;15.31;100.00;97232.03;5009062;28;20079;-60
2023/05/23 05:38:58;;;;;;;51.25;35.88;;;;;;;15.48;100.00;97229.69;4995562;28;20789;-59
2023/05/23 05:41:25;;;;;;;50.63;37.22;;;;;;;15.48;100.00;97237.03;4999634;28;20127;-59
2023/05/23 05:43:52;;;;;;;46.65;35.75;;;;;;;15.63;100.00;97230.66;4993818;28;20049;-60
2023/05/23 05:46:19;;;;;;;47.53;34.65;;;;;;;15.79;100.00;97231.28;4996963;28;20408;-59
2023/05/23 05:48:47;;;;;;;46.95;33.75;;;;;;;15.48;100.00;97235.13;4991865;28;20104;-58
2023/05/23 05:51:16;;;;;;;47.75;32.67;;;;;;;15.63;100.00;97227.09;4997483;28;20049;-60
2023/05/23 05:53:43;;;;;;;42.30;31.42;;;;;;;15.66;100.00;97240.16;4992436;28;20050;-60
2023/05/23 05:56:09;;;;;;;47.10;31.23;;;;;;;15.64;100.00;97234.16;4993583;28;20050;-60
2023/05/23 05:58:37;;;;;;;44.85;31.30;;;;;;;15.44;100.00;97245.00;4995865;28;20115;-60
2023/05/23 06:01:06;;;;;;;39.67;29.08;;;;;;;15.36;100.00;97242.88;4999638;28;20037;-59
2023/05/23 06:03:33;;;;;;;41.95;30.10;;;;;;;15.48;100.00;97237.88;4994735;28;20100;-57
2023/05/23 06:06:00;;;;;;;38.33;28.08;;;;;;;15.66;100.00;97238.22;4982821;28;20103;-59
2023/05/23 06:08:26;;;;;;;36.90;28.25;;;;;;;15.67;100.00;97245.31;4998109;28;20052;-60
2023/05/23 06:10:53;;;;;;;37.03;27.42;;;;;;;15.78;100.00;97253.41;4998381;28;20061;-58
2023/05/23 06:13:20;;;;;;;41.58;28.23;;;;;;;15.67;100.00;97245.31;5000977;28;20046;-60
2023/05/23 06:15:51;;;;;;;35.10;27.92;;;;;;;15.77;100.00;97244.41;4990702;28;20057;-59
2023/05/23 06:18:18;;;;;;;38.33;28.63;;;;;;;15.86;100.00;97241.88;4991581;28;20045;-60
2023/05/23 06:20:44;;;;;;;35.38;26.83;;;;;;;16.01;100.00;97237.34;4993545;28;20100;-60
2023/05/23 06:23:14;;;;;;;36.33;28.67;;;;;;;15.99;100.00;97254.03;4994536;28;20041;-59
2023/05/23 06:25:41;;;;;;;38.03;29.00;;;;;;;16.06;100.00;97254.50;4995910;28;20132;-59
2023/05/23 06:28:07;;;;;;;40.10;28.10;;;;;;;15.94;100.00;97256.78;4998690;28;20077;-59
2023/05/23 06:30:35;;;;;;;35.70;27.85;;;;;;;15.98;100.00;97261.41;4993260;28;20069;-60
2023/05/23 06:33:03;;;;;;;38.95;28.58;;;;;;;15.66;100.00;97262.00;4990795;28;20542;-61
2023/05/23 06:35:30;;;;;;;40.47;28.55;;;;;;;15.50;100.00;97274.94;4998053;28;20042;-61
2023/05/23 06:37:59;;;;;;;37.08;28.13;;;;;;;15.45;100.00;97284.03;4997635;28;20060;-59
2023/05/23 06:40:26;;;;;;;35.40;25.80;;;;;;;15.38;100.00;97288.97;4995967;28;20156;-58
2023/05/23 06:42:52;;;;;;;36.22;26.48;;;;;;;15.43;100.00;97288.94;4997485;28;20046;-59
2023/05/23 06:45:45;;;;;;;37.67;25.77;;;;;;;15.41;100.00;97293.88;4995559;28;20112;-60
2023/05/23 06:48:12;;;;;;;33.88;25.42;;;;;;;15.51;100.00;97295.72;4993305;28;20050;-58
2023/05/23 06:50:40;;;;;;;33.20;25.42;;;;;;;15.43;100.00;97303.41;4995400;28;20045;-60
2023/05/23 06:53:07;;;;;;;32.95;24.98;;;;;;;15.51;100.00;97301.16;4997939;28;20054;-59
2023/05/23 06:55:34;;;;;;;36.72;26.30;;;;;;;15.51;100.00;97301.97;4987944;28;20050;-60
2023/05/23 06:58:03;;;;;;;34.63;26.33;;;;;;;15.52;100.00;97310.97;4990230;28;20500;-60
2023/05/23 07:00:30;;;;;;;39.65;27.55;;;;;;;15.37;100.00;97312.69;4986186;28;20155;-60
2023/05/23 07:03:06;;;;;;;36.80;27.33;;;;;;;15.54;100.00;97314.22;4993285;28;20112;-60
2023/05/23 07:05:33;;;;;;;35.55;26.55;;;;;;;15.56;100.00;97312.03;4991691;28;20050;-60
2023/05/23 07:08:00;;;;;;;36.65;26.63;;;;;;;15.19;100.00;97316.94;4997129;28;20049;-60
2023/05/23 07:10:26;;;;;;;34.80;27.25;;;;;;;15.25;100.00;97315.81;4991999;28;20049;-60
2023/05/23 07:12:59;;;;;;;39.55;28.27;;;;;;;15.05;100.00;97330.41;4989500;28;20544;-60
2023/05/23 07:15:27;;;;;;;40.42;28.08;;;;;;;15.08;100.00;97333.38;4994409;28;20042;-60
2023/05/23 07:18:04;;;;;;;39.15;28.33;;;;;;;15.02;100.00;97337.22;4996329;28;20044;-60
2023/05/23 07:20:34;;;;;;;34.13;25.02;;;;;;;15.10;100.00;97335.03;4993333;28;20045;-60
2023/05/23 07:23:09;;;;;;;36.40;26.33;;;;;;;15.07;100.00;97336.38;4993717;28;20045;-60
2023/05/23 07:25:36;;;;;;;33.17;25.15;;;;;;;14.96;100.00;97332.88;4998376;28;20085;-58
2023/05/23 07:28:09;;;;;;;35.50;26.80;;;;;;;15.08;100.00;97332.56;4997804;28;20585;-60
2023/05/23 07:30:36;;;;;;;37.97;26.95;;;;;;;15.23;100.00;97328.91;4995790;28;20067;-59
2023/05/23 07:33:03;;;;;;;33.58;25.73;;;;;;;15.15;100.00;97326.78;4991351;28;20104;-60
2023/05/23 07:35:32;;;;;;;32.03;24.90;;;;;;;15.26;100.00;97324.81;4986887;28;20092;-60
2023/05/23 07:37:59;;;;;;;28.45;22.90;;;;;;;15.50;100.00;97332.25;4994616;28;20133;-59
2023/05/23 07:40:26;;;;;;;31.38;22.95;;;;;;;15.47;100.00;97334.47;4996652;28;20965;-61
2023/05/23 07:42:53;;;;;;;27.85;20.67;;;;;;;15.68;100.00;97331.56;4996623;28;20049;-60
2023/05/23 07:45:19;;;;;;;30.70;22.42;;;;;;;15.69;98.25;97335.09;4989973;28;20044;-61
2023/05/23 07:47:46;;;;;;;27.75;21.15;;;;;;;15.61;98.66;97333.81;4992252;28;20480;-60
2023/05/23 07:50:13;;;;;;;25.88;20.00;;;;;;;15.68;97.87;97336.22;4994472;28;20041;-60
2023/05/23 07:52:40;;;;;;;25.38;20.08;;;;;;;15.62;98.45;97342.81;4993499;28;20042;-58
2023/05/23 07:55:09;;;;;;;27.08;20.92;;;;;;;15.40;99.35;97344.09;5000071;28;20156;-60
2023/05/23 07:57:36;;;;;;;28.95;19.92;;;;;;;15.37;100.00;97352.81;5000436;28;20042;-60
2023/05/23 08:00:05;;;;;;;28.92;20.42;;;;;;;15.51;99.58;97350.28;4996657;28;20044;-60
2023/05/23 08:02:40;;;;;;;26.88;19.92;;;;;;;15.69;97.63;97352.31;5002339;28;20525;-60
2023/05/23 08:05:12;;;;;;;24.30;18.00;;;;;;;15.83;95.06;97351.63;4999901;28;20042;-59
2023/05/23 08:07:39;;;;;;;25.20;19.42;;;;;;;15.55;96.59;97364.97;5001325;28;20708;-59
2023/05/23 08:10:07;;;;;;;27.08;20.83;;;;;;;15.33;98.18;97358.84;4995185;28;20081;-60
2023/05/23 08:12:33;;;;;;;23.23;17.67;;;;;;;15.44;97.54;97361.53;4992895;28;20531;-60
2023/05/23 08:15:08;;;;;;;24.63;18.65;;;;;;;15.09;99.66;97369.63;5000033;28;20042;-58
2023/05/23 08:17:40;;;;;;;23.80;18.58;;;;;;;15.30;97.42;97362.13;4999287;28;20042;-58
2023/05/23 08:20:08;;;;;;;30.40;20.88;;;;;;;15.40;98.06;97369.44;4995130;28;20073;-59
2023/05/23 08:22:35;;;;;;;22.85;16.95;;;;;;;15.68;96.04;97361.59;5001180;28;20129;-60
2023/05/23 08:25:04;;;;;;;23.77;18.27;;;;;;;15.62;95.53;97357.25;4998844;28;20042;-60
2023/05/23 08:27:34;;;;;;;22.27;17.27;;;;;;;15.45;97.68;97365.88;5000324;28;20038;-60
2023/05/23 08:30:08;;;;;;;25.50;17.98;;;;;;;15.52;96.61;97368.28;4999073;28;20053;-60
2023/05/23 08:32:36;;;;;;;25.38;17.50;;;;;;;15.76;94.79;97367.53;4997242;28;20061;-59
2023/05/23 08:35:04;;;;;;;25.48;19.65;;;;;;;15.33;97.84;97371.66;4997680;28;20046;-60
2023/05/23 08:37:31;;;;;;;29.02;18.02;;;;;;;15.57;95.78;97373.69;5000288;28;20042;-60
2023/05/23 08:39:57;;;;;;;25.27;17.77;;;;;;;15.44;95.96;97375.16;4997751;28;20044;-59
2023/05/23 08:42:40;;;;;;;24.15;18.02;;;;;;;15.20;95.49;97373.94;4999872;28;20065;-60
2023/05/23 08:45:09;;;;;;;24.27;18.23;;;;;;;15.45;95.83;97384.97;4998283;28;20073;-59
2023/05/23 08:47:39;;;;;;;23.00;17.27;;;;;;;15.30;96.87;97377.69;5001471;28;20647;-60
2023/05/23 08:50:07;;;;;;;23.67;17.33;;;;;;;15.33;95.69;97386.13;4994300;28;20600;-60
2023/05/23 08:52:41;;;;;;;22.00;17.45;;;;;;;15.57;94.03;97388.16;4999837;28;20068;-60
2023/05/23 08:55:08;;;;;;;22.50;16.45;;;;;;;15.77;93.51;97378.16;5000274;28;20653;-60
2023/05/23 08:57:35;;;;;;;22.25;16.73;;;;;;;15.82;93.63;97380.84;5001166;28;20053;-59
2023/05/23 09:00:18;;;;;;;20.08;15.85;;;;;;;15.99;91.20;97383.19;4996022;28;20069;-59
2023/05/23 09:02:46;;;;;;;17.35;14.15;;;;;;;16.30;89.02;97384.00;4992651;28;20055;-60
2023/05/23 09:05:38;;;;;;;17.13;13.40;;;;;;;16.06;88.67;97390.22;4995784;28;20049;-60
2023/05/23 09:08:06;;;;;;;18.27;12.43;;;;;;;16.38;85.39;97389.66;4999876;28;20038;-61
2023/05/23 09:10:34;;;;;;;16.30;12.63;;;;;;;16.30;85.09;97389.47;4995197;28;20045;-60
2023/05/23 09:13:03;;;;;;;15.13;11.45;;;;;;;16.55;84.38;97391.09;4997938;28;20038;-59
2023/05/23 09:15:30;;;;;;;13.70;10.45;;;;;;;16.88;82.82;97390.44;4999536;28;20067;-59
2023/05/23 09:18:00;;;;;;;15.15;10.40;;;;;;;17.01;82.09;97397.09;4999472;28;20042;-59
2023/05/23 09:20:27;;;;;;;13.48;10.02;;;;;;;17.11;79.84;97391.53;4997978;28;20117;-60
2023/05/23 09:22:57;;;;;;;14.95;10.18;;;;;;;17.18;79.91;97396.66;4995174;28;20432;-60
2023/05/23 09:25:26;;;;;;;13.00;10.20;;;;;;;16.85;80.21;97402.75;4992373;28;20730;-60
2023/05/23 09:27:55;;;;;;;12.30;9.40;;;;;;;16.88;81.29;97393.19;4984546;28;20547;-59
2023/05/23 09:30:22;;;;;;;15.65;10.52;;;;;;;17.01;82.75;97400.66;4988053;28;20075;-59
2023/05/23 09:32:59;;;;;;;13.95;10.35;;;;;;;16.86;84.15;97404.41;4988083;28;20050;-60
2023/05/23 09:35:31;;;;;;;16.17;11.00;;;;;;;17.10;83.57;97406.31;4992180;28;20042;-60
2023/05/23 09:37:58;;;;;;;14.98;10.85;;;;;;;17.61;82.20;97405.91;4995781;28;20041;-59
2023/05/23 09:40:31;;;;;;;14.77;10.63;;;;;;;17.69;79.05;97399.72;4993080;28;20049;-60
2023/05/23 09:43:04;;;;;;;16.05;11.38;;;;;;;17.60;79.01;97407.81;4992537;28;20077;-61
2023/05/23 09:45:31;;;;;;;16.73;9.20;;;;;;;17.57;78.90;97415.81;4994239;28;20042;-60
2023/05/23 09:48:00;;;;;;;19.17;9.57;;;;;;;17.11;80.74;97404.41;4995026;28;20073;-60
2023/05/23 09:50:32;;;;;;;13.80;9.85;;;;;;;17.28;80.16;97409.34;4992916;28;20053;-59
2023/05/23 09:53:00;;;;;;;13.48;9.23;;;;;;;17.57;78.76;97397.44;4995051;28;20480;-60
2023/05/23 09:55:27;;;;;;;15.30;10.27;;;;;;;17.47;77.04;97403.88;4989662;28;20066;-59
2023/05/23 09:57:57;;;;;;;13.32;9.40;;;;;;;17.43;78.59;97400.09;4998222;28;20037;-59
2023/05/23 10:00:24;;;;;;;13.93;9.68;;;;;;;17.34;78.24;97407.38;4989757;28;20568;-60
2023/05/23 10:03:12;;;;;;;16.92;9.45;;;;;;;17.22;78.07;97400.44;4990270;28;20053;-60
2023/05/23 10:05:56;;;;;;;12.90;8.20;;;;;;;17.86;74.61;97401.91;5000398;28;20057;-60
2023/05/23 10:08:37;;;;;;;13.90;9.90;;;;;;;17.77;74.87;97404.50;4994018;28;20117;-60
2023/05/23 10:11:13;;;;;;;14.73;9.82;;;;;;;18.34;74.08;97408.25;4999606;28;20653;-59
2023/05/23 10:13:44;;;;;;;13.35;10.20;;;;;;;18.33;72.38;97412.91;4997863;28;20048;-60
2023/05/23 10:16:13;;;;;;;;;;;;;;;18.19;70.84;97414.81;5002107;28;20049;-60
2023/05/23 10:18:43;;;;;;;12.15;10.02;;;;;;;17.86;72.94;97409.31;5000758;28;19929;-59
2023/05/23 10:21:14;;;;;;;14.98;9.60;;;;;;;18.13;74.83;97411.34;4995404;28;20575;-60
2023/05/23 10:23:43;;;;;;;13.10;10.30;;;;;;;17.75;73.12;97403.19;4999898;28;20042;-60
2023/05/23 10:26:10;;;;;;;16.95;11.23;;;;;;;17.52;75.26;97419.44;4995731;28;20046;-60
2023/05/23 10:28:38;;;;;;;12.48;10.45;;;;;;;17.64;74.07;97410.75;4998592;28;20662;-60
2023/05/23 10:31:05;;;;;;;14.32;10.40;;;;;;;17.33;75.17;97422.16;4989525;28;21281;-59
2023/05/23 10:33:40;;;;;;;14.98;10.50;;;;;;;17.42;75.85;97406.69;4997964;28;20054;-59
2023/05/23 10:36:18;;;;;;;11.80;9.80;;;;;;;17.57;74.12;97415.81;4999362;28;20053;-59
2023/05/23 10:38:55;;;;;;;14.10;10.80;;;;;;;18.00;73.04;97415.66;4995581;28;20129;-59
2023/05/23 10:41:32;;;;;;;11.57;9.45;;;;;;;18.23;71.95;97418.59;4993502;28;20073;-61
2023/05/23 10:44:28;;;;;;;13.85;10.52;;;;;;;17.99;71.71;97414.03;4991450;28;20054;-60
2023/05/23 10:46:57;;;;;;;14.82;10.02;;;;;;;18.26;72.56;97411.69;4999532;28;20233;-60
2023/05/23 10:49:40;;;;;;;15.38;10.63;;;;;;;18.30;71.93;97407.22;4998547;28;20048;-61
2023/05/23 10:52:09;;;;;;;12.68;10.02;;;;;;;18.41;72.39;97407.84;4996145;28;20131;-59
2023/05/23 10:54:52;;;;;;;13.95;9.48;;;;;;;18.85;68.90;97417.44;4999300;28;20044;-60
2023/05/23 10:57:21;;;;;;;14.88;9.73;;;;;;;18.01;69.50;97413.72;4992571;28;20044;-60
2023/05/23 10:59:51;;;;;;;22.10;9.43;;;;;;;18.26;70.08;97417.16;4993748;28;20133;-60
2023/05/23 11:02:25;;;;;;;12.82;9.65;;;;;;;18.44;70.60;97427.28;4994370;28;20045;-60
2023/05/23 11:05:22;;;;;;;13.13;10.95;;;;;;;18.55;70.28;97419.66;4996298;28;20124;-60
2023/05/23 11:08:13;;;;;;;13.82;10.50;;;;;;;18.65;68.79;97423.31;4983769;28;20647;-60
2023/05/23 11:10:58;;;;;;;11.55;8.98;;;;;;;18.65;68.24;97418.63;4993407;28;20046;-60
2023/05/23 11:13:25;;;;;;;12.50;10.65;;;;;;;18.39;68.49;97423.81;4989221;28;20049;-60
2023/05/23 11:15:52;;;;;;;13.55;10.80;;;;;;;18.35;69.40;97420.84;4988041;28;20042;-60
2023/05/23 11:18:21;;;;;;;22.10;10.48;;;;;;;18.67;67.91;97423.81;4996311;28;20453;-61
2023/05/23 11:20:52;;;;;;;12.43;8.85;;;;;;;18.28;69.59;97423.19;4994233;28;20120;-60
2023/05/23 11:23:21;;;;;;;12.35;8.48;;;;;;;18.53;68.14;97432.84;4997327;28;20416;-60